Utleyville, Colorado
Current Conditions -  °F | °C
As of 7:53 AM on Wednesday 22 Oct 2014 (Local Time) from KLAA Reporting Station
Clear Clear  
Wind Chill: 52°   Ceiling: Unl
Heat Index: 52°   Visibility: 8mi
Dew Point: 48°   Wind: 6mph
Humidity: 86%   Direction: 310°NW
Pressure: 30"   Gusts: NA
Location:  37.3546°N, 102.952°W
Report Text: KLAA 221353Z AUTO 31005KT 8SM CLR 11/09 A3000 RMK AO2 SLP127 T01110089
Loading
Personal Weather Stations






























Interactive Weather Map
Tropical Storm Tracking
New forecast layout! Learn more

10-Day Weather Forecast

Advertisements
Track Severe Weather on mobile